sensor_id;sensor_type;location;lat;lon;timestamp;temperature;humidity
3713;DHT22;1872;51.406;6.856;2023-08-24T00:01:36;18.60;99.90
3713;DHT22;1872;51.406;6.856;2023-08-24T00:04:02;18.60;99.90
3713;DHT22;1872;51.406;6.856;2023-08-24T00:06:28;18.70;99.90
3713;DHT22;1872;51.406;6.856;2023-08-24T00:08:53;18.70;99.90
3713;DHT22;1872;51.406;6.856;2023-08-24T00:11:19;18.70;99.90
3713;DHT22;1872;51.406;6.856;2023-08-24T00:13:45;18.80;99.90
3713;DHT22;1872;51.406;6.856;2023-08-24T00:16:18;18.80;99.90
3713;DHT22;1872;51.406;6.856;2023-08-24T00:18:45;18.70;99.90
3713;DHT22;1872;51.406;6.856;2023-08-24T00:21:12;18.70;99.90
3713;DHT22;1872;51.406;6.856;2023-08-24T00:23:38;18.60;99.90
3713;DHT22;1872;51.406;6.856;2023-08-24T00:26:04;18.50;99.90
3713;DHT22;1872;51.406;6.856;2023-08-24T00:28:29;18.50;99.90
3713;DHT22;1872;51.406;6.856;2023-08-24T00:30:55;18.50;99.90
3713;DHT22;1872;51.406;6.856;2023-08-24T00:33:21;18.40;99.90
3713;DHT22;1872;51.406;6.856;2023-08-24T00:35:46;18.40;99.90
3713;DHT22;1872;51.406;6.856;2023-08-24T00:38:13;18.30;99.90
3713;DHT22;1872;51.406;6.856;2023-08-24T00:40:40;18.30;99.90
3713;DHT22;1872;51.406;6.856;2023-08-24T00:43:06;18.30;99.90
3713;DHT22;1872;51.406;6.856;2023-08-24T00:45:32;18.20;99.90
3713;DHT22;1872;51.406;6.856;2023-08-24T00:47:58;18.20;99.90
3713;DHT22;1872;51.406;6.856;2023-08-24T00:50:24;18.20;99.90
3713;DHT22;1872;51.406;6.856;2023-08-24T00:52:50;18.10;99.90
3713;DHT22;1872;51.406;6.856;2023-08-24T00:55:16;18.10;99.90
3713;DHT22;1872;51.406;6.856;2023-08-24T00:57:43;18.10;99.90
3713;DHT22;1872;51.406;6.856;2023-08-24T01:00:09;18.10;99.90
3713;DHT22;1872;51.406;6.856;2023-08-24T01:02:37;18.00;99.90
3713;DHT22;1872;51.406;6.856;2023-08-24T01:05:03;18.00;99.90
3713;DHT22;1872;51.406;6.856;2023-08-24T01:07:34;18.00;99.90
3713;DHT22;1872;51.406;6.856;2023-08-24T01:10:01;18.00;99.90
3713;DHT22;1872;51.406;6.856;2023-08-24T01:15:09;17.90;99.90
3713;DHT22;1872;51.406;6.856;2023-08-24T01:17:39;17.90;99.90
3713;DHT22;1872;51.406;6.856;2023-08-24T01:20:07;17.90;99.90
3713;DHT22;1872;51.406;6.856;2023-08-24T01:25:51;17.80;99.90
3713;DHT22;1872;51.406;6.856;2023-08-24T01:28:19;17.80;99.90
3713;DHT22;1872;51.406;6.856;2023-08-24T01:30:46;17.80;99.90
3713;DHT22;1872;51.406;6.856;2023-08-24T01:33:13;17.70;99.90
3713;DHT22;1872;51.406;6.856;2023-08-24T01:35:39;17.70;99.90
3713;DHT22;1872;51.406;6.856;2023-08-24T01:38:05;17.70;99.90
3713;DHT22;1872;51.406;6.856;2023-08-24T01:40:39;17.70;99.90
3713;DHT22;1872;51.406;6.856;2023-08-24T01:43:10;17.70;99.90
3713;DHT22;1872;51.406;6.856;2023-08-24T01:45:39;17.70;99.90
3713;DHT22;1872;51.406;6.856;2023-08-24T01:48:07;17.60;99.90
3713;DHT22;1872;51.406;6.856;2023-08-24T01:50:34;17.60;99.90
3713;DHT22;1872;51.406;6.856;2023-08-24T01:53:01;17.60;99.90
3713;DHT22;1872;51.406;6.856;2023-08-24T01:55:27;17.60;99.90
3713;DHT22;1872;51.406;6.856;2023-08-24T01:57:54;17.60;99.90
3713;DHT22;1872;51.406;6.856;2023-08-24T02:00:20;17.60;99.90
3713;DHT22;1872;51.406;6.856;2023-08-24T02:02:46;17.60;99.90
3713;DHT22;1872;51.406;6.856;2023-08-24T02:05:11;17.60;99.90
3713;DHT22;1872;51.406;6.856;2023-08-24T02:07:38;17.60;99.90
3713;DHT22;1872;51.406;6.856;2023-08-24T02:10:05;17.50;99.90
3713;DHT22;1872;51.406;6.856;2023-08-24T02:12:31;17.50;99.90
3713;DHT22;1872;51.406;6.856;2023-08-24T02:14:56;17.50;99.90
3713;DHT22;1872;51.406;6.856;2023-08-24T02:17:22;17.40;99.90
3713;DHT22;1872;51.406;6.856;2023-08-24T02:19:48;17.40;99.90
3713;DHT22;1872;51.406;6.856;2023-08-24T02:22:13;17.40;99.90
3713;DHT22;1872;51.406;6.856;2023-08-24T02:24:39;17.30;99.90
3713;DHT22;1872;51.406;6.856;2023-08-24T02:27:05;17.30;99.90
3713;DHT22;1872;51.406;6.856;2023-08-24T02:29:30;17.30;99.90
3713;DHT22;1872;51.406;6.856;2023-08-24T02:31:56;17.30;99.90
3713;DHT22;1872;51.406;6.856;2023-08-24T02:34:21;17.20;99.90
3713;DHT22;1872;51.406;6.856;2023-08-24T02:36:47;17.20;99.90
3713;DHT22;1872;51.406;6.856;2023-08-24T02:39:13;17.20;99.90
3713;DHT22;1872;51.406;6.856;2023-08-24T02:41:38;17.20;99.90
3713;DHT22;1872;51.406;6.856;2023-08-24T02:44:04;17.20;99.90
3713;DHT22;1872;51.406;6.856;2023-08-24T02:46:30;17.20;99.90
3713;DHT22;1872;51.406;6.856;2023-08-24T02:48:56;17.20;99.90
3713;DHT22;1872;51.406;6.856;2023-08-24T02:51:22;17.20;99.90
3713;DHT22;1872;51.406;6.856;2023-08-24T02:53:48;17.20;99.90
3713;DHT22;1872;51.406;6.856;2023-08-24T02:56:14;17.20;99.90
3713;DHT22;1872;51.406;6.856;2023-08-24T02:58:40;17.20;99.90
3713;DHT22;1872;51.406;6.856;2023-08-24T03:01:06;17.20;99.90
3713;DHT22;1872;51.406;6.856;2023-08-24T03:03:35;17.20;99.90
3713;DHT22;1872;51.406;6.856;2023-08-24T03:06:06;17.20;99.90
3713;DHT22;1872;51.406;6.856;2023-08-24T03:08:33;17.20;99.90
3713;DHT22;1872;51.406;6.856;2023-08-24T03:10:59;17.20;99.90
3713;DHT22;1872;51.406;6.856;2023-08-24T03:13:26;17.20;99.90
3713;DHT22;1872;51.406;6.856;2023-08-24T03:15:52;17.20;99.90
3713;DHT22;1872;51.406;6.856;2023-08-24T03:18:18;17.20;99.90
3713;DHT22;1872;51.406;6.856;2023-08-24T03:20:45;17.20;99.90
3713;DHT22;1872;51.406;6.856;2023-08-24T03:23:11;17.20;99.90
3713;DHT22;1872;51.406;6.856;2023-08-24T03:25:39;17.20;99.90
3713;DHT22;1872;51.406;6.856;2023-08-24T03:28:06;17.20;99.90
3713;DHT22;1872;51.406;6.856;2023-08-24T03:30:33;17.20;99.90
3713;DHT22;1872;51.406;6.856;2023-08-24T03:32:59;17.20;99.90
3713;DHT22;1872;51.406;6.856;2023-08-24T03:35:25;17.30;99.90
3713;DHT22;1872;51.406;6.856;2023-08-24T03:37:51;17.30;99.90
3713;DHT22;1872;51.406;6.856;2023-08-24T03:40:17;17.30;99.90
3713;DHT22;1872;51.406;6.856;2023-08-24T03:42:43;17.30;99.90
3713;DHT22;1872;51.406;6.856;2023-08-24T03:45:09;17.40;99.90
3713;DHT22;1872;51.406;6.856;2023-08-24T03:47:35;17.40;99.90
3713;DHT22;1872;51.406;6.856;2023-08-24T03:50:00;17.40;99.90
3713;DHT22;1872;51.406;6.856;2023-08-24T03:52:26;17.50;99.90
3713;DHT22;1872;51.406;6.856;2023-08-24T03:54:52;17.50;99.90
3713;DHT22;1872;51.406;6.856;2023-08-24T03:57:17;17.50;99.90
3713;DHT22;1872;51.406;6.856;2023-08-24T03:59:43;17.50;99.90
3713;DHT22;1872;51.406;6.856;2023-08-24T04:02:09;17.50;99.90
3713;DHT22;1872;51.406;6.856;2023-08-24T04:04:34;17.60;99.90
3713;DHT22;1872;51.406;6.856;2023-08-24T04:07:01;17.50;99.90
3713;DHT22;1872;51.406;6.856;2023-08-24T04:09:27;17.60;99.90
3713;DHT22;1872;51.406;6.856;2023-08-24T04:11:53;17.50;99.90
3713;DHT22;1872;51.406;6.856;2023-08-24T04:14:19;17.50;99.90
3713;DHT22;1872;51.406;6.856;2023-08-24T04:16:44;17.50;99.90
3713;DHT22;1872;51.406;6.856;2023-08-24T04:19:10;17.50;99.90
3713;DHT22;1872;51.406;6.856;2023-08-24T04:21:36;17.50;99.90
3713;DHT22;1872;51.406;6.856;2023-08-24T04:24:01;17.50;99.90
3713;DHT22;1872;51.406;6.856;2023-08-24T04:26:27;17.50;99.90
3713;DHT22;1872;51.406;6.856;2023-08-24T04:28:53;17.50;99.90
3713;DHT22;1872;51.406;6.856;2023-08-24T04:31:19;17.40;99.90
3713;DHT22;1872;51.406;6.856;2023-08-24T04:33:44;17.40;99.90
3713;DHT22;1872;51.406;6.856;2023-08-24T04:36:10;17.40;99.90
3713;DHT22;1872;51.406;6.856;2023-08-24T04:38:35;17.40;99.90
3713;DHT22;1872;51.406;6.856;2023-08-24T04:41:02;17.40;99.90
3713;DHT22;1872;51.406;6.856;2023-08-24T04:43:32;17.30;99.90
3713;DHT22;1872;51.406;6.856;2023-08-24T04:45:58;17.30;99.90
3713;DHT22;1872;51.406;6.856;2023-08-24T04:48:25;17.30;99.90
3713;DHT22;1872;51.406;6.856;2023-08-24T04:50:52;17.30;99.90
3713;DHT22;1872;51.406;6.856;2023-08-24T04:53:22;17.40;99.90
3713;DHT22;1872;51.406;6.856;2023-08-24T04:55:47;17.40;99.90
3713;DHT22;1872;51.406;6.856;2023-08-24T04:58:13;17.40;99.90
3713;DHT22;1872;51.406;6.856;2023-08-24T05:00:39;17.30;99.90
3713;DHT22;1872;51.406;6.856;2023-08-24T05:03:06;17.30;99.90
3713;DHT22;1872;51.406;6.856;2023-08-24T05:05:33;17.30;99.90
3713;DHT22;1872;51.406;6.856;2023-08-24T05:07:59;17.40;99.90
3713;DHT22;1872;51.406;6.856;2023-08-24T05:10:25;17.30;99.90
3713;DHT22;1872;51.406;6.856;2023-08-24T05:12:51;17.30;99.90
3713;DHT22;1872;51.406;6.856;2023-08-24T05:15:17;17.40;99.90
3713;DHT22;1872;51.406;6.856;2023-08-24T05:17:43;17.40;99.90
3713;DHT22;1872;51.406;6.856;2023-08-24T05:20:09;17.40;99.90
3713;DHT22;1872;51.406;6.856;2023-08-24T05:22:38;17.40;99.90
3713;DHT22;1872;51.406;6.856;2023-08-24T05:25:04;17.50;99.90
3713;DHT22;1872;51.406;6.856;2023-08-24T05:27:31;17.50;99.90
3713;DHT22;1872;51.406;6.856;2023-08-24T05:29:57;17.50;99.90
3713;DHT22;1872;51.406;6.856;2023-08-24T05:32:23;17.60;99.90
3713;DHT22;1872;51.406;6.856;2023-08-24T05:34:48;17.60;99.90
3713;DHT22;1872;51.406;6.856;2023-08-24T05:37:14;17.70;99.90
3713;DHT22;1872;51.406;6.856;2023-08-24T05:39:40;17.70;99.90
3713;DHT22;1872;51.406;6.856;2023-08-24T05:42:06;17.70;99.90
3713;DHT22;1872;51.406;6.856;2023-08-24T05:44:32;17.70;99.90
3713;DHT22;1872;51.406;6.856;2023-08-24T05:46:57;17.70;99.90
3713;DHT22;1872;51.406;6.856;2023-08-24T05:49:23;17.80;99.90
3713;DHT22;1872;51.406;6.856;2023-08-24T05:51:50;17.80;99.90
3713;DHT22;1872;51.406;6.856;2023-08-24T05:54:16;17.80;99.90
3713;DHT22;1872;51.406;6.856;2023-08-24T05:56:48;17.90;99.90
3713;DHT22;1872;51.406;6.856;2023-08-24T05:59:14;17.90;99.90
3713;DHT22;1872;51.406;6.856;2023-08-24T06:01:40;17.90;99.90
3713;DHT22;1872;51.406;6.856;2023-08-24T06:04:07;18.00;99.90
3713;DHT22;1872;51.406;6.856;2023-08-24T06:06:33;18.00;99.90
3713;DHT22;1872;51.406;6.856;2023-08-24T06:08:59;18.00;99.90
3713;DHT22;1872;51.406;6.856;2023-08-24T06:11:24;18.00;99.90
3713;DHT22;1872;51.406;6.856;2023-08-24T06:13:50;18.10;99.90
3713;DHT22;1872;51.406;6.856;2023-08-24T06:16:19;18.10;99.90
3713;DHT22;1872;51.406;6.856;2023-08-24T06:18:53;18.20;99.90
3713;DHT22;1872;51.406;6.856;2023-08-24T06:21:18;18.20;99.90
3713;DHT22;1872;51.406;6.856;2023-08-24T06:23:44;18.30;99.90
3713;DHT22;1872;51.406;6.856;2023-08-24T06:26:13;18.40;99.90
3713;DHT22;1872;51.406;6.856;2023-08-24T06:28:39;18.40;99.90
3713;DHT22;1872;51.406;6.856;2023-08-24T06:31:08;18.50;99.90
3713;DHT22;1872;51.406;6.856;2023-08-24T06:33:34;18.50;99.90
3713;DHT22;1872;51.406;6.856;2023-08-24T06:36:01;18.60;99.90
3713;DHT22;1872;51.406;6.856;2023-08-24T06:38:27;18.60;99.90
3713;DHT22;1872;51.406;6.856;2023-08-24T06:40:54;18.70;99.90
3713;DHT22;1872;51.406;6.856;2023-08-24T06:43:20;18.70;99.90
3713;DHT22;1872;51.406;6.856;2023-08-24T06:45:45;18.90;99.90
3713;DHT22;1872;51.406;6.856;2023-08-24T06:48:12;19.10;99.90
3713;DHT22;1872;51.406;6.856;2023-08-24T06:50:38;19.30;99.90
3713;DHT22;1872;51.406;6.856;2023-08-24T06:53:04;19.60;99.90
3713;DHT22;1872;51.406;6.856;2023-08-24T06:55:30;19.90;99.90
3713;DHT22;1872;51.406;6.856;2023-08-24T06:57:56;20.30;99.90
3713;DHT22;1872;51.406;6.856;2023-08-24T07:00:22;20.70;99.90
3713;DHT22;1872;51.406;6.856;2023-08-24T07:02:51;21.10;99.90
3713;DHT22;1872;51.406;6.856;2023-08-24T07:05:17;21.50;99.90
3713;DHT22;1872;51.406;6.856;2023-08-24T07:07:47;22.00;99.90
3713;DHT22;1872;51.406;6.856;2023-08-24T07:10:14;22.50;99.90
3713;DHT22;1872;51.406;6.856;2023-08-24T07:12:40;22.70;99.90
3713;DHT22;1872;51.406;6.856;2023-08-24T07:15:07;23.10;99.90
3713;DHT22;1872;51.406;6.856;2023-08-24T07:17:33;23.40;99.90
3713;DHT22;1872;51.406;6.856;2023-08-24T07:19:59;23.60;99.90
3713;DHT22;1872;51.406;6.856;2023-08-24T07:22:24;23.80;99.90
3713;DHT22;1872;51.406;6.856;2023-08-24T07:24:53;24.00;99.90
3713;DHT22;1872;51.406;6.856;2023-08-24T07:27:19;24.10;99.90
3713;DHT22;1872;51.406;6.856;2023-08-24T07:29:45;24.30;99.90
3713;DHT22;1872;51.406;6.856;2023-08-24T07:32:10;24.40;99.90
3713;DHT22;1872;51.406;6.856;2023-08-24T07:34:36;24.50;99.90
3713;DHT22;1872;51.406;6.856;2023-08-24T07:37:02;24.60;99.90
3713;DHT22;1872;51.406;6.856;2023-08-24T07:39:28;24.80;99.90
3713;DHT22;1872;51.406;6.856;2023-08-24T07:41:54;25.00;99.90
3713;DHT22;1872;51.406;6.856;2023-08-24T07:44:19;25.20;99.90
3713;DHT22;1872;51.406;6.856;2023-08-24T07:46:46;25.50;99.90
3713;DHT22;1872;51.406;6.856;2023-08-24T07:49:12;25.80;99.90
3713;DHT22;1872;51.406;6.856;2023-08-24T07:51:37;26.00;99.90
3713;DHT22;1872;51.406;6.856;2023-08-24T07:54:03;26.20;99.90
3713;DHT22;1872;51.406;6.856;2023-08-24T07:56:30;26.50;99.90
3713;DHT22;1872;51.406;6.856;2023-08-24T07:58:56;26.60;99.90
3713;DHT22;1872;51.406;6.856;2023-08-24T08:01:21;26.80;99.90
3713;DHT22;1872;51.406;6.856;2023-08-24T08:03:47;26.80;99.90
3713;DHT22;1872;51.406;6.856;2023-08-24T08:06:13;26.90;99.90
3713;DHT22;1872;51.406;6.856;2023-08-24T08:08:39;27.10;99.90
3713;DHT22;1872;51.406;6.856;2023-08-24T08:11:04;27.20;99.90
3713;DHT22;1872;51.406;6.856;2023-08-24T08:13:30;27.30;99.90
3713;DHT22;1872;51.406;6.856;2023-08-24T08:16:06;27.40;99.90
3713;DHT22;1872;51.406;6.856;2023-08-24T08:18:33;27.40;99.90
3713;DHT22;1872;51.406;6.856;2023-08-24T08:20:59;27.40;99.90
3713;DHT22;1872;51.406;6.856;2023-08-24T08:23:26;27.40;99.90
3713;DHT22;1872;51.406;6.856;2023-08-24T08:25:51;27.40;99.90
3713;DHT22;1872;51.406;6.856;2023-08-24T08:28:17;27.50;99.90
3713;DHT22;1872;51.406;6.856;2023-08-24T08:30:44;27.70;99.90
3713;DHT22;1872;51.406;6.856;2023-08-24T08:33:09;27.80;99.90
3713;DHT22;1872;51.406;6.856;2023-08-24T08:35:35;27.90;99.90
3713;DHT22;1872;51.406;6.856;2023-08-24T08:38:01;27.80;99.90
3713;DHT22;1872;51.406;6.856;2023-08-24T08:40:29;27.80;99.90
3713;DHT22;1872;51.406;6.856;2023-08-24T08:42:58;27.70;99.90
3713;DHT22;1872;51.406;6.856;2023-08-24T08:45:28;27.50;99.90
3713;DHT22;1872;51.406;6.856;2023-08-24T08:47:59;27.40;99.90
3713;DHT22;1872;51.406;6.856;2023-08-24T08:50:25;27.40;99.90
3713;DHT22;1872;51.406;6.856;2023-08-24T08:52:51;27.40;99.90
3713;DHT22;1872;51.406;6.856;2023-08-24T08:55:18;27.40;99.90
3713;DHT22;1872;51.406;6.856;2023-08-24T08:57:49;27.30;99.90
3713;DHT22;1872;51.406;6.856;2023-08-24T09:00:18;27.30;99.90
3713;DHT22;1872;51.406;6.856;2023-08-24T09:02:45;27.20;99.90
3713;DHT22;1872;51.406;6.856;2023-08-24T09:05:12;27.20;99.90
3713;DHT22;1872;51.406;6.856;2023-08-24T09:07:41;27.20;99.90
3713;DHT22;1872;51.406;6.856;2023-08-24T09:10:08;27.20;99.90
3713;DHT22;1872;51.406;6.856;2023-08-24T09:12:34;27.10;99.90
3713;DHT22;1872;51.406;6.856;2023-08-24T09:15:04;27.00;99.90
3713;DHT22;1872;51.406;6.856;2023-08-24T09:17:30;26.80;99.90
3713;DHT22;1872;51.406;6.856;2023-08-24T09:19:58;26.80;99.90
3713;DHT22;1872;51.406;6.856;2023-08-24T09:22:24;26.80;99.90
3713;DHT22;1872;51.406;6.856;2023-08-24T09:24:50;26.70;99.90
3713;DHT22;1872;51.406;6.856;2023-08-24T09:27:18;26.60;99.90
3713;DHT22;1872;51.406;6.856;2023-08-24T09:29:51;26.50;99.90
3713;DHT22;1872;51.406;6.856;2023-08-24T09:32:30;26.50;99.90
3713;DHT22;1872;51.406;6.856;2023-08-24T09:35:02;26.40;99.90
3713;DHT22;1872;51.406;6.856;2023-08-24T09:37:32;26.20;99.90
3713;DHT22;1872;51.406;6.856;2023-08-24T09:40:03;26.20;99.90
3713;DHT22;1872;51.406;6.856;2023-08-24T09:42:41;26.20;99.90
3713;DHT22;1872;51.406;6.856;2023-08-24T09:45:08;26.20;99.90
3713;DHT22;1872;51.406;6.856;2023-08-24T09:47:36;26.30;99.90
3713;DHT22;1872;51.406;6.856;2023-08-24T09:50:03;26.40;99.90
3713;DHT22;1872;51.406;6.856;2023-08-24T09:52:32;26.50;99.90
3713;DHT22;1872;51.406;6.856;2023-08-24T09:55:04;26.50;99.90
3713;DHT22;1872;51.406;6.856;2023-08-24T09:57:39;26.60;99.90
3713;DHT22;1872;51.406;6.856;2023-08-24T10:00:07;26.60;99.90
3713;DHT22;1872;51.406;6.856;2023-08-24T10:02:40;26.50;99.90
3713;DHT22;1872;51.406;6.856;2023-08-24T10:05:07;26.50;99.90
3713;DHT22;1872;51.406;6.856;2023-08-24T10:07:35;26.50;99.90
3713;DHT22;1872;51.406;6.856;2023-08-24T10:10:09;26.50;99.90
3713;DHT22;1872;51.406;6.856;2023-08-24T10:12:41;26.50;99.90
3713;DHT22;1872;51.406;6.856;2023-08-24T10:15:09;26.40;99.90
3713;DHT22;1872;51.406;6.856;2023-08-24T10:17:39;26.40;99.90
3713;DHT22;1872;51.406;6.856;2023-08-24T10:20:06;26.40;99.90
3713;DHT22;1872;51.406;6.856;2023-08-24T10:22:35;26.30;99.90
3713;DHT22;1872;51.406;6.856;2023-08-24T10:25:04;26.20;99.90
3713;DHT22;1872;51.406;6.856;2023-08-24T10:27:31;26.20;99.90
3713;DHT22;1872;51.406;6.856;2023-08-24T10:29:57;26.20;99.90
3713;DHT22;1872;51.406;6.856;2023-08-24T10:32:27;26.10;99.90
3713;DHT22;1872;51.406;6.856;2023-08-24T10:34:53;26.00;99.90
3713;DHT22;1872;51.406;6.856;2023-08-24T10:37:25;26.10;99.90
3713;DHT22;1872;51.406;6.856;2023-08-24T10:39:52;26.00;99.90
3713;DHT22;1872;51.406;6.856;2023-08-24T10:42:17;26.00;99.90
3713;DHT22;1872;51.406;6.856;2023-08-24T10:44:47;26.00;99.90
3713;DHT22;1872;51.406;6.856;2023-08-24T10:49:45;26.00;99.90
3713;DHT22;1872;51.406;6.856;2023-08-24T10:52:33;26.00;99.90
3713;DHT22;1872;51.406;6.856;2023-08-24T10:55:01;26.10;99.90
3713;DHT22;1872;51.406;6.856;2023-08-24T10:57:39;26.10;99.90
3713;DHT22;1872;51.406;6.856;2023-08-24T11:00:10;26.10;99.90
3713;DHT22;1872;51.406;6.856;2023-08-24T11:02:48;26.00;99.90
3713;DHT22;1872;51.406;6.856;2023-08-24T11:07:52;25.90;99.90
3713;DHT22;1872;51.406;6.856;2023-08-24T11:10:19;26.00;99.90
3713;DHT22;1872;51.406;6.856;2023-08-24T11:15:41;26.00;99.90
3713;DHT22;1872;51.406;6.856;2023-08-24T11:18:23;26.00;99.90
3713;DHT22;1872;51.406;6.856;2023-08-24T11:20:52;26.00;99.90
3713;DHT22;1872;51.406;6.856;2023-08-24T11:23:20;26.00;99.90
3713;DHT22;1872;51.406;6.856;2023-08-24T11:25:47;26.00;99.90
3713;DHT22;1872;51.406;6.856;2023-08-24T11:28:18;25.90;99.90
3713;DHT22;1872;51.406;6.856;2023-08-24T11:30:45;25.90;99.90
3713;DHT22;1872;51.406;6.856;2023-08-24T11:33:11;25.80;99.90
3713;DHT22;1872;51.406;6.856;2023-08-24T11:35:45;25.80;99.90
3713;DHT22;1872;51.406;6.856;2023-08-24T11:38:12;25.80;99.90
3713;DHT22;1872;51.406;6.856;2023-08-24T11:40:38;25.70;99.90
3713;DHT22;1872;51.406;6.856;2023-08-24T11:43:04;25.60;99.90
3713;DHT22;1872;51.406;6.856;2023-08-24T11:45:37;25.60;99.90
3713;DHT22;1872;51.406;6.856;2023-08-24T11:48:04;25.60;99.90
3713;DHT22;1872;51.406;6.856;2023-08-24T11:50:31;25.60;99.90
3713;DHT22;1872;51.406;6.856;2023-08-24T11:52:57;25.60;99.90
3713;DHT22;1872;51.406;6.856;2023-08-24T11:55:23;25.70;99.90
3713;DHT22;1872;51.406;6.856;2023-08-24T11:57:50;25.70;99.90
3713;DHT22;1872;51.406;6.856;2023-08-24T12:00:18;25.70;99.90
3713;DHT22;1872;51.406;6.856;2023-08-24T12:02:45;25.70;99.90
3713;DHT22;1872;51.406;6.856;2023-08-24T12:05:29;25.70;99.90
3713;DHT22;1872;51.406;6.856;2023-08-24T12:07:55;25.70;99.90
3713;DHT22;1872;51.406;6.856;2023-08-24T12:10:21;25.70;99.90
3713;DHT22;1872;51.406;6.856;2023-08-24T12:12:47;25.80;99.90
3713;DHT22;1872;51.406;6.856;2023-08-24T12:15:19;25.80;99.90
3713;DHT22;1872;51.406;6.856;2023-08-24T12:17:46;25.70;99.90
3713;DHT22;1872;51.406;6.856;2023-08-24T12:20:21;25.80;99.90
3713;DHT22;1872;51.406;6.856;2023-08-24T12:23:07;25.70;99.90
3713;DHT22;1872;51.406;6.856;2023-08-24T12:25:43;25.80;99.90
3713;DHT22;1872;51.406;6.856;2023-08-24T12:28:11;25.80;99.90
3713;DHT22;1872;51.406;6.856;2023-08-24T12:30:51;25.70;99.90
3713;DHT22;1872;51.406;6.856;2023-08-24T12:33:28;25.70;99.90
3713;DHT22;1872;51.406;6.856;2023-08-24T12:35:55;25.70;99.90
3713;DHT22;1872;51.406;6.856;2023-08-24T12:38:25;25.70;99.90
3713;DHT22;1872;51.406;6.856;2023-08-24T12:40:51;25.60;99.90
3713;DHT22;1872;51.406;6.856;2023-08-24T12:43:19;25.50;99.90
3713;DHT22;1872;51.406;6.856;2023-08-24T12:45:44;25.40;99.90
3713;DHT22;1872;51.406;6.856;2023-08-24T12:48:11;25.30;99.90
3713;DHT22;1872;51.406;6.856;2023-08-24T12:50:38;25.30;99.90
3713;DHT22;1872;51.406;6.856;2023-08-24T12:53:06;25.20;99.90
3713;DHT22;1872;51.406;6.856;2023-08-24T12:55:33;25.10;99.90
3713;DHT22;1872;51.406;6.856;2023-08-24T12:57:59;25.00;99.90
3713;DHT22;1872;51.406;6.856;2023-08-24T13:00:25;25.00;99.90
3713;DHT22;1872;51.406;6.856;2023-08-24T13:02:52;25.00;99.90
3713;DHT22;1872;51.406;6.856;2023-08-24T13:05:18;24.90;99.90
3713;DHT22;1872;51.406;6.856;2023-08-24T13:07:44;24.90;99.90
3713;DHT22;1872;51.406;6.856;2023-08-24T13:10:10;25.00;99.90
3713;DHT22;1872;51.406;6.856;2023-08-24T13:12:37;25.00;99.90
3713;DHT22;1872;51.406;6.856;2023-08-24T13:15:03;25.00;99.90
3713;DHT22;1872;51.406;6.856;2023-08-24T13:17:32;25.00;99.90
3713;DHT22;1872;51.406;6.856;2023-08-24T13:19:58;25.00;99.90
3713;DHT22;1872;51.406;6.856;2023-08-24T13:22:23;25.00;99.90
3713;DHT22;1872;51.406;6.856;2023-08-24T13:24:50;25.00;99.90
3713;DHT22;1872;51.406;6.856;2023-08-24T13:27:16;25.00;99.90
3713;DHT22;1872;51.406;6.856;2023-08-24T13:29:42;25.10;99.90
3713;DHT22;1872;51.406;6.856;2023-08-24T13:32:08;25.10;99.90
3713;DHT22;1872;51.406;6.856;2023-08-24T13:34:36;25.00;99.90
3713;DHT22;1872;51.406;6.856;2023-08-24T13:37:02;25.00;99.90
3713;DHT22;1872;51.406;6.856;2023-08-24T13:39:29;25.00;99.90
3713;DHT22;1872;51.406;6.856;2023-08-24T13:41:59;25.00;99.90
3713;DHT22;1872;51.406;6.856;2023-08-24T13:44:25;25.10;99.90
3713;DHT22;1872;51.406;6.856;2023-08-24T13:46:52;25.00;99.90
3713;DHT22;1872;51.406;6.856;2023-08-24T13:49:19;25.10;99.90
3713;DHT22;1872;51.406;6.856;2023-08-24T13:51:45;25.10;99.90
3713;DHT22;1872;51.406;6.856;2023-08-24T13:54:15;25.10;99.90
3713;DHT22;1872;51.406;6.856;2023-08-24T13:56:41;25.10;99.90
3713;DHT22;1872;51.406;6.856;2023-08-24T13:59:07;25.10;99.90
3713;DHT22;1872;51.406;6.856;2023-08-24T14:01:33;25.10;99.90
3713;DHT22;1872;51.406;6.856;2023-08-24T14:03:59;25.10;99.90
3713;DHT22;1872;51.406;6.856;2023-08-24T14:06:28;25.10;99.90
3713;DHT22;1872;51.406;6.856;2023-08-24T14:08:53;25.10;99.90
3713;DHT22;1872;51.406;6.856;2023-08-24T14:11:19;25.00;99.90
3713;DHT22;1872;51.406;6.856;2023-08-24T14:13:45;25.00;99.90
3713;DHT22;1872;51.406;6.856;2023-08-24T14:16:11;25.00;99.90
3713;DHT22;1872;51.406;6.856;2023-08-24T14:18:36;25.00;99.90
3713;DHT22;1872;51.406;6.856;2023-08-24T14:21:03;25.00;99.90
3713;DHT22;1872;51.406;6.856;2023-08-24T14:23:29;25.00;99.90
3713;DHT22;1872;51.406;6.856;2023-08-24T14:25:55;25.00;99.90
3713;DHT22;1872;51.406;6.856;2023-08-24T14:28:21;25.00;99.90
3713;DHT22;1872;51.406;6.856;2023-08-24T14:30:52;25.00;99.90
3713;DHT22;1872;51.406;6.856;2023-08-24T14:33:18;24.90;99.90
3713;DHT22;1872;51.406;6.856;2023-08-24T14:35:53;24.90;99.90
3713;DHT22;1872;51.406;6.856;2023-08-24T14:38:19;24.90;99.90
3713;DHT22;1872;51.406;6.856;2023-08-24T14:40:44;24.90;99.90
3713;DHT22;1872;51.406;6.856;2023-08-24T14:43:10;24.80;99.90
3713;DHT22;1872;51.406;6.856;2023-08-24T14:45:36;24.80;99.90
3713;DHT22;1872;51.406;6.856;2023-08-24T14:48:02;24.80;99.90
3713;DHT22;1872;51.406;6.856;2023-08-24T14:50:28;24.80;99.90
3713;DHT22;1872;51.406;6.856;2023-08-24T14:52:55;24.70;99.90
3713;DHT22;1872;51.406;6.856;2023-08-24T14:55:20;24.70;99.90
3713;DHT22;1872;51.406;6.856;2023-08-24T14:57:46;24.70;99.90
3713;DHT22;1872;51.406;6.856;2023-08-24T15:00:12;24.60;99.90
3713;DHT22;1872;51.406;6.856;2023-08-24T15:02:38;24.60;99.90
3713;DHT22;1872;51.406;6.856;2023-08-24T15:05:05;24.60;99.90
3713;DHT22;1872;51.406;6.856;2023-08-24T15:07:31;24.60;99.90
3713;DHT22;1872;51.406;6.856;2023-08-24T15:09:58;24.50;99.90
3713;DHT22;1872;51.406;6.856;2023-08-24T15:12:24;24.40;99.90
3713;DHT22;1872;51.406;6.856;2023-08-24T15:15:00;24.40;99.90
3713;DHT22;1872;51.406;6.856;2023-08-24T15:17:28;24.30;99.90
3713;DHT22;1872;51.406;6.856;2023-08-24T15:19:54;24.20;99.90
3713;DHT22;1872;51.406;6.856;2023-08-24T15:22:25;24.20;99.90
3713;DHT22;1872;51.406;6.856;2023-08-24T15:24:59;24.10;99.90
3713;DHT22;1872;51.406;6.856;2023-08-24T15:27:28;24.00;99.90
3713;DHT22;1872;51.406;6.856;2023-08-24T15:29:54;23.90;99.90
3713;DHT22;1872;51.406;6.856;2023-08-24T15:32:20;23.80;99.90
3713;DHT22;1872;51.406;6.856;2023-08-24T15:34:46;23.80;99.90
3713;DHT22;1872;51.406;6.856;2023-08-24T15:37:12;23.80;99.90
3713;DHT22;1872;51.406;6.856;2023-08-24T15:39:40;23.70;99.90
3713;DHT22;1872;51.406;6.856;2023-08-24T15:42:07;23.70;99.90
3713;DHT22;1872;51.406;6.856;2023-08-24T15:44:33;23.60;99.90
3713;DHT22;1872;51.406;6.856;2023-08-24T15:46:59;23.50;99.90
3713;DHT22;1872;51.406;6.856;2023-08-24T15:49:25;23.50;99.90
3713;DHT22;1872;51.406;6.856;2023-08-24T15:51:52;23.40;99.90
3713;DHT22;1872;51.406;6.856;2023-08-24T15:54:18;23.40;99.90
3713;DHT22;1872;51.406;6.856;2023-08-24T15:56:43;23.30;99.90
3713;DHT22;1872;51.406;6.856;2023-08-24T15:59:16;23.20;99.90
3713;DHT22;1872;51.406;6.856;2023-08-24T16:01:42;23.20;99.90
3713;DHT22;1872;51.406;6.856;2023-08-24T16:04:08;23.10;99.90
3713;DHT22;1872;51.406;6.856;2023-08-24T16:06:33;23.00;99.90
3713;DHT22;1872;51.406;6.856;2023-08-24T16:08:59;22.90;99.90
3713;DHT22;1872;51.406;6.856;2023-08-24T16:11:25;22.90;99.90
3713;DHT22;1872;51.406;6.856;2023-08-24T16:13:52;22.80;99.90
3713;DHT22;1872;51.406;6.856;2023-08-24T16:16:18;22.80;99.90